Time;durP1;ratioP1;P1;durP2;ratioP2;P2;SDS_P1;SDS_P2;PMS_P1;PMS_P2;Temp;Humidity;BMP_temperature;BMP_pressure;BME280_temperature;BME280_humidity;BME280_pressure;Samples;Min_cycle;Max_cycle;Signal;HPM_P1;HPM_P2
2021/08/08 00:01:09;;;;;;;5.50;2.93;;;17.90;99.90;17.60;96202.00;;;;5069006;28;20226;-71
2021/08/08 00:03:59;;;;;;;4.37;2.77;;;17.90;99.90;17.80;96190.00;;;;5057425;28;20207;-71
2021/08/08 00:06:58;;;;;;;4.10;2.93;;;17.90;99.90;17.70;96198.00;;;;5068003;28;20196;-71
2021/08/08 00:09:47;;;;;;;7.87;3.60;;;17.90;99.90;17.60;96201.00;;;;5066692;28;20208;-71
2021/08/08 00:12:36;;;;;;;5.00;2.60;;;17.90;99.90;17.40;96197.00;;;;5067040;28;20238;-71
2021/08/08 00:15:25;;;;;;;3.30;2.83;;;17.90;99.90;17.20;96206.00;;;;5066613;28;20200;-71
2021/08/08 00:18:14;;;;;;;5.53;3.70;;;17.80;99.90;17.30;96208.00;;;;5068685;28;20243;-71
2021/08/08 00:21:04;;;;;;;6.40;3.23;;;17.80;99.90;17.10;96219.00;;;;5068549;28;20236;-71
2021/08/08 00:23:53;;;;;;;5.20;3.27;;;17.70;99.90;16.90;96210.00;;;;5068128;28;20285;-71
2021/08/08 00:26:42;;;;;;;4.30;2.50;;;17.60;99.90;17.10;96212.00;;;;5055912;28;20572;-71
2021/08/08 00:29:31;;;;;;;6.93;3.77;;;17.50;99.90;16.90;96219.00;;;;5067655;28;20212;-71
2021/08/08 00:32:22;;;;;;;5.87;2.57;;;17.40;99.90;16.90;96217.00;;;;5067168;28;20242;-71
2021/08/08 00:35:12;;;;;;;3.73;3.20;;;17.30;99.90;16.90;96220.00;;;;5066234;28;20718;-71
2021/08/08 00:38:02;;;;;;;5.73;2.87;;;17.30;99.90;16.90;96218.00;;;;5067707;28;20773;-71
2021/08/08 00:40:51;;;;;;;3.97;2.70;;;17.30;99.90;16.90;96233.00;;;;5067545;28;20231;-71
2021/08/08 00:43:40;;;;;;;6.83;3.10;;;17.30;99.90;17.10;96219.00;;;;5066838;28;20203;-71
2021/08/08 00:46:29;;;;;;;3.60;3.30;;;17.30;99.90;17.20;96219.00;;;;5067029;28;20203;-71
2021/08/08 00:49:18;;;;;;;6.37;3.20;;;17.40;99.90;17.20;96217.00;;;;5066906;28;20200;-71
2021/08/08 00:52:07;;;;;;;4.93;3.30;;;17.40;99.90;17.30;96216.00;;;;5067046;28;20236;-71
2021/08/08 00:54:58;;;;;;;5.43;3.07;;;17.40;99.90;16.90;96218.00;;;;5067205;28;20682;-71
2021/08/08 00:57:47;;;;;;;5.67;3.33;;;17.40;99.90;16.80;96221.00;;;;5067681;28;20228;-71
2021/08/08 01:00:38;;;;;;;5.40;2.93;;;17.00;99.90;17.00;96219.00;;;;5067515;28;20694;-71
2021/08/08 01:03:31;;;;;;;3.97;3.10;;;17.30;99.90;17.10;96236.00;;;;5066015;28;20200;-71
2021/08/08 01:06:30;;;;;;;4.47;3.23;;;17.30;99.90;16.90;96223.00;;;;5067118;28;20708;-71
2021/08/08 01:09:22;;;;;;;4.13;3.30;;;17.30;99.90;17.00;96220.00;;;;5066868;28;20575;-71
2021/08/08 01:12:13;;;;;;;5.70;3.30;;;17.30;99.90;17.20;96231.00;;;;5067559;28;20752;-71
2021/08/08 01:15:02;;;;;;;6.17;2.77;;;17.30;99.90;17.10;96237.00;;;;5066491;28;20726;-71
2021/08/08 01:17:51;;;;;;;5.17;2.83;;;17.40;99.90;17.00;96231.00;;;;5063862;28;20358;-71
2021/08/08 01:20:41;;;;;;;4.33;3.40;;;17.40;99.90;16.90;96248.00;;;;5071036;28;20250;-71
2021/08/08 01:23:32;;;;;;;2.33;2.13;;;17.30;99.90;17.00;96255.00;;;;5059263;28;20203;-70
2021/08/08 01:26:23;;;;;;;3.93;3.30;;;17.30;99.90;17.00;96251.00;;;;5067773;28;20584;-71
2021/08/08 01:29:12;;;;;;;4.50;3.30;;;17.30;99.90;17.10;96248.00;;;;5074678;28;20203;-70
2021/08/08 01:32:01;;;;;;;9.77;4.23;;;17.30;99.90;17.10;96272.00;;;;5068746;28;20227;-70
2021/08/08 01:34:50;;;;;;;4.47;2.80;;;17.30;99.90;17.00;96270.00;;;;5065709;28;20257;-71
2021/08/08 01:37:39;;;;;;;3.80;3.10;;;17.30;99.90;16.80;96271.00;;;;5066899;28;20228;-71
2021/08/08 01:40:36;;;;;;;10.17;3.00;;;17.30;99.90;17.00;96273.00;;;;5067214;28;20208;-70
2021/08/08 01:43:29;;;;;;;4.13;3.57;;;17.20;99.90;17.00;96273.00;;;;5065856;28;20709;-71
2021/08/08 01:46:22;;;;;;;5.63;3.67;;;17.20;99.90;16.80;96271.00;;;;5056619;28;20204;-70
2021/08/08 01:49:11;;;;;;;3.47;3.17;;;17.20;99.90;16.90;96288.00;;;;5066956;28;20204;-70
2021/08/08 01:52:01;;;;;;;5.40;2.97;;;17.20;99.90;17.00;96285.00;;;;5071337;28;20224;-71
2021/08/08 01:54:51;;;;;;;9.43;3.90;;;17.20;99.90;17.00;96288.00;;;;5075806;28;20662;-71
2021/08/08 01:57:40;;;;;;;5.40;3.20;;;17.20;99.90;17.20;96301.00;;;;5066196;28;20226;-70
2021/08/08 02:00:32;;;;;;;5.13;3.67;;;17.20;99.90;17.60;96285.00;;;;5064762;28;20212;-70
2021/08/08 02:03:21;;;;;;;3.17;2.87;;;17.30;99.90;18.10;96286.00;;;;5065338;28;20742;-70
2021/08/08 02:06:12;;;;;;;5.77;3.13;;;17.60;99.90;18.40;96298.00;;;;5065195;28;20204;-70
2021/08/08 02:09:01;;;;;;;4.20;2.60;;;17.80;99.90;18.60;96279.00;;;;5066896;28;20199;-70
2021/08/08 02:11:50;;;;;;;2.93;2.47;;;18.10;99.90;18.70;96289.00;;;;5050792;28;20238;-71
2021/08/08 02:14:39;;;;;;;3.53;2.37;;;18.30;99.90;18.80;96295.00;;;;5065031;28;20604;-70
2021/08/08 02:17:29;;;;;;;5.83;2.30;;;18.50;99.90;18.90;96291.00;;;;5065625;28;20201;-70
2021/08/08 02:20:19;;;;;;;4.03;2.33;;;18.70;99.90;18.90;96299.00;;;;5065525;28;20210;-71
2021/08/08 02:23:08;;;;;;;2.70;2.00;;;18.80;99.90;19.00;96305.00;;;;5065303;28;20203;-71
2021/08/08 02:25:57;;;;;;;3.60;1.83;;;18.90;99.90;19.00;96298.00;;;;5065198;28;20223;-71
2021/08/08 02:28:46;;;;;;;3.47;2.50;;;18.90;99.90;19.00;96299.00;;;;5067091;28;20207;-71
2021/08/08 02:31:39;;;;;;;2.50;1.97;;;18.90;99.90;19.00;96292.00;;;;5065329;28;20706;-70
2021/08/08 02:34:29;;;;;;;1.50;1.40;;;19.00;99.90;19.00;96310.00;;;;5051828;28;20204;-71
2021/08/08 02:37:18;;;;;;;1.60;1.50;;;19.00;99.90;19.00;96311.00;;;;5064876;28;20207;-71
2021/08/08 02:40:09;;;;;;;1.73;1.63;;;19.00;99.90;19.10;96318.00;;;;5065927;28;20216;-71
2021/08/08 02:42:57;;;;;;;1.57;1.40;;;19.00;99.90;19.10;96323.00;;;;5054237;28;20211;-70
2021/08/08 02:45:49;;;;;;;3.10;1.70;;;19.10;99.90;19.20;96311.00;;;;5064737;28;20711;-70
2021/08/08 02:48:38;;;;;;;1.53;1.40;;;19.10;99.90;19.20;96326.00;;;;5066732;28;20199;-70
2021/08/08 02:51:29;;;;;;;1.50;1.40;;;19.20;99.90;19.20;96331.00;;;;5065118;28;20234;-70
2021/08/08 02:54:17;;;;;;;1.93;1.10;;;19.20;99.90;19.20;96338.00;;;;5069717;28;20221;-70
2021/08/08 02:57:06;;;;;;;2.47;1.40;;;19.20;99.90;19.20;96349.00;;;;5069147;28;20212;-70
2021/08/08 02:59:55;;;;;;;1.43;1.07;;;19.20;99.90;19.20;96352.00;;;;5068833;28;20235;-70
2021/08/08 03:02:44;;;;;;;0.97;0.87;;;19.20;99.90;19.20;96355.00;;;;5069427;28;20207;-69
2021/08/08 03:05:33;;;;;;;1.23;1.00;;;19.20;99.90;19.20;96363.00;;;;5068747;28;20214;-69
2021/08/08 03:08:23;;;;;;;1.53;0.70;;;19.20;99.90;19.30;96360.00;;;;5071908;28;20204;-69
2021/08/08 03:11:13;;;;;;;2.07;0.93;;;19.20;99.90;19.30;96353.00;;;;5067657;28;20250;-70
2021/08/08 03:14:01;;;;;;;1.20;0.80;;;19.20;99.90;19.30;96351.00;;;;5069260;28;20208;-70
2021/08/08 03:16:51;;;;;;;0.90;0.80;;;19.20;99.90;19.30;96361.00;;;;5058101;28;20284;-70
2021/08/08 03:19:40;;;;;;;2.40;0.90;;;19.20;99.90;19.30;96355.00;;;;5069265;28;20231;-69
2021/08/08 03:22:29;;;;;;;0.90;0.90;;;19.30;99.90;19.20;96368.00;;;;5068274;28;20232;-70
2021/08/08 03:25:19;;;;;;;0.93;0.90;;;19.20;99.90;19.20;96373.00;;;;5070006;28;20704;-70
2021/08/08 03:28:08;;;;;;;1.27;0.87;;;19.30;99.90;19.20;96385.00;;;;5065855;28;20208;-70
2021/08/08 03:30:57;;;;;;;2.27;1.20;;;19.20;99.90;19.20;96376.00;;;;5067903;28;20710;-70
2021/08/08 03:33:45;;;;;;;1.23;1.13;;;19.20;99.90;19.30;96383.00;;;;5068059;28;20632;-70
2021/08/08 03:36:34;;;;;;;0.80;0.80;;;19.20;99.90;19.30;96389.00;;;;5068389;28;20245;-69
2021/08/08 03:39:25;;;;;;;1.00;0.77;;;19.20;99.90;19.30;96399.00;;;;5056479;28;20223;-69
2021/08/08 03:42:15;;;;;;;1.83;1.00;;;19.30;99.90;19.30;96409.00;;;;5069105;28;20220;-70
2021/08/08 03:45:06;;;;;;;1.63;0.77;;;19.30;99.90;19.30;96401.00;;;;5068561;28;20214;-70
2021/08/08 03:47:55;;;;;;;1.87;0.90;;;19.30;99.90;19.30;96400.00;;;;5069094;28;20195;-70
2021/08/08 03:50:44;;;;;;;1.47;1.10;;;19.30;99.90;19.30;96418.00;;;;5068349;28;20721;-70
2021/08/08 03:53:33;;;;;;;1.63;1.13;;;19.30;99.90;19.30;96417.00;;;;5067663;28;20208;-69
2021/08/08 03:56:22;;;;;;;1.13;1.03;;;19.30;99.90;19.20;96423.00;;;;5068374;28;20200;-69
2021/08/08 03:59:12;;;;;;;1.87;0.87;;;19.30;99.90;19.20;96428.00;;;;5058714;28;20570;-70
2021/08/08 04:02:01;;;;;;;1.33;0.73;;;19.30;99.90;19.30;96434.00;;;;5067419;28;20227;-70
2021/08/08 04:04:50;;;;;;;1.00;0.90;;;18.60;99.90;19.30;96433.00;;;;5067578;28;20215;-70
2021/08/08 04:07:39;;;;;;;1.57;0.90;;;19.30;99.90;19.20;96443.00;;;;5068917;28;20211;-70
2021/08/08 04:10:27;;;;;;;2.47;0.90;;;19.30;99.90;19.20;96454.00;;;;5056269;28;20499;-70
2021/08/08 04:13:16;;;;;;;0.90;0.60;;;19.30;99.90;19.20;96447.00;;;;5068443;28;20208;-69
2021/08/08 04:16:07;;;;;;;1.17;0.70;;;19.30;99.90;19.30;96419.00;;;;5067073;28;20208;-70
2021/08/08 04:18:56;;;;;;;2.20;1.03;;;19.30;99.90;19.20;96420.00;;;;5067526;28;20269;-70
2021/08/08 04:21:45;;;;;;;1.40;1.30;;;19.30;99.90;19.20;96444.00;;;;5056236;28;20228;-69
2021/08/08 04:24:33;;;;;;;2.17;0.97;;;19.30;99.90;19.20;96436.00;;;;5067569;28;20207;-69
2021/08/08 04:27:22;;;;;;;5.03;1.20;;;19.30;99.90;19.20;96443.00;;;;5068393;28;20204;-70
2021/08/08 04:30:12;;;;;;;1.00;0.83;;;19.20;99.90;19.10;96446.00;;;;5067912;28;20215;-70
2021/08/08 04:33:03;;;;;;;1.10;1.00;;;19.20;99.90;19.10;96455.00;;;;5066338;28;20203;-69
2021/08/08 04:35:52;;;;;;;1.50;0.87;;;19.20;99.90;19.10;96458.00;;;;5067960;28;20204;-70
2021/08/08 04:38:41;;;;;;;1.00;0.90;;;19.20;99.90;19.10;96475.00;;;;5067727;28;20206;-70
2021/08/08 04:41:30;;;;;;;0.80;0.73;;;19.20;99.90;19.20;96480.00;;;;5068557;28;20600;-70
2021/08/08 04:44:19;;;;;;;1.50;1.17;;;19.20;99.90;19.20;96498.00;;;;5056083;28;20222;-69
2021/08/08 04:47:08;;;;;;;0.53;0.53;;;19.20;99.90;19.30;96493.00;;;;5066650;28;20219;-69
2021/08/08 04:49:58;;;;;;;1.47;0.87;;;19.20;99.90;19.30;96497.00;;;;5066224;28;20196;-69
2021/08/08 04:52:48;;;;;;;0.63;0.60;;;19.30;99.90;19.30;96500.00;;;;5067639;28;20215;-69
2021/08/08 04:55:37;;;;;;;3.33;0.90;;;19.30;99.90;19.30;96496.00;;;;5054190;28;20257;-69
2021/08/08 04:58:25;;;;;;;0.80;0.80;;;19.30;99.90;19.40;96496.00;;;;5065840;28;20199;-69
2021/08/08 05:01:14;;;;;;;2.70;0.80;;;19.40;99.90;19.40;96496.00;;;;5066124;28;20581;-70
2021/08/08 05:04:03;;;;;;;1.40;0.87;;;19.40;99.90;19.40;96497.00;;;;5067058;28;20204;-70
2021/08/08 05:06:54;;;;;;;1.80;1.10;;;19.40;99.90;19.60;96501.00;;;;5061245;28;20713;-69
2021/08/08 05:09:43;;;;;;;2.20;0.60;;;19.50;99.90;19.60;96515.00;;;;5067699;28;20237;-70
2021/08/08 05:12:31;;;;;;;0.80;0.80;;;19.50;99.90;19.60;96519.00;;;;5066456;28;20220;-69
2021/08/08 05:15:21;;;;;;;0.80;0.80;;;19.60;99.90;19.60;96516.00;;;;5056224;28;20222;-69
2021/08/08 05:18:11;;;;;;;1.03;0.77;;;19.60;99.90;19.50;96510.00;;;;5065694;28;20209;-70
2021/08/08 05:21:00;;;;;;;1.47;0.80;;;19.60;99.90;19.60;96517.00;;;;5065460;28;20258;-69
2021/08/08 05:23:50;;;;;;;1.23;1.00;;;19.60;99.90;19.50;96530.00;;;;5066193;28;20207;-69
2021/08/08 05:26:39;;;;;;;0.70;0.70;;;19.60;99.90;19.50;96539.00;;;;5066390;28;20733;-70
2021/08/08 05:29:28;;;;;;;0.83;0.80;;;19.60;99.90;19.30;96541.00;;;;5065987;28;20211;-70
2021/08/08 05:32:17;;;;;;;2.03;0.80;;;19.60;99.90;19.30;96554.00;;;;5063880;28;20223;-71
2021/08/08 05:35:08;;;;;;;1.13;0.70;;;19.50;99.90;19.20;96556.00;;;;5065519;28;20211;-70
2021/08/08 05:37:57;;;;;;;0.90;0.87;;;19.50;99.90;19.30;96543.00;;;;5055077;28;20200;-70
2021/08/08 05:40:48;;;;;;;0.60;0.57;;;19.40;99.90;19.30;96553.00;;;;5062918;28;20228;-70
2021/08/08 05:43:36;;;;;;;0.73;0.73;;;19.40;99.90;19.30;96561.00;;;;5061270;28;20207;-70
2021/08/08 05:46:25;;;;;;;1.03;0.90;;;19.40;99.90;19.20;96562.00;;;;5066791;28;20215;-70
2021/08/08 05:49:14;;;;;;;1.70;0.77;;;19.40;99.90;19.20;96560.00;;;;5066635;28;20204;-70
2021/08/08 05:52:05;;;;;;;0.83;0.80;;;19.40;99.90;19.40;96561.00;;;;5065909;28;20223;-70
2021/08/08 05:54:54;;;;;;;0.83;0.70;;;19.40;99.90;19.10;96572.00;;;;5065710;28;20208;-70
2021/08/08 05:57:45;;;;;;;1.07;0.70;;;19.30;99.90;19.20;96558.00;;;;5066920;28;20208;-71
2021/08/08 06:00:34;;;;;;;3.00;1.60;;;19.30;99.90;19.30;96556.00;;;;5064832;28;20265;-71
2021/08/08 06:03:23;;;;;;;1.03;0.80;;;19.50;99.90;19.50;96557.00;;;;5066083;28;20214;-71
2021/08/08 06:06:12;;;;;;;1.10;1.00;;;19.40;99.90;19.60;96581.00;;;;5069560;28;20230;-71
2021/08/08 06:09:01;;;;;;;1.07;0.80;;;19.40;99.90;19.40;96584.00;;;;5066384;28;20204;-70
2021/08/08 06:11:50;;;;;;;1.10;1.00;;;19.50;99.90;19.50;96574.00;;;;5048858;28;20228;-70
2021/08/08 06:14:40;;;;;;;0.63;0.63;;;19.50;99.90;19.60;96579.00;;;;5055625;28;20199;-70
2021/08/08 06:17:32;;;;;;;1.77;1.10;;;19.50;99.90;19.50;96593.00;;;;5070110;28;20248;-70
2021/08/08 06:20:21;;;;;;;0.80;0.70;;;19.50;99.90;19.50;96596.00;;;;5066259;28;20223;-70
2021/08/08 06:23:09;;;;;;;2.33;0.90;;;19.50;99.90;19.50;96609.00;;;;5066106;28;20210;-70
2021/08/08 06:25:58;;;;;;;2.37;0.90;;;19.50;99.90;19.50;96599.00;;;;5065899;28;20214;-70
2021/08/08 06:28:47;;;;;;;1.13;0.90;;;19.50;99.90;19.50;96592.00;;;;5066627;28;20207;-70
2021/08/08 06:31:38;;;;;;;1.70;0.70;;;19.50;99.90;19.40;96594.00;;;;5054572;28;20238;-70
2021/08/08 06:34:27;;;;;;;4.37;0.97;;;19.50;99.90;19.30;96594.00;;;;5051383;28;20199;-70
2021/08/08 06:37:16;;;;;;;0.90;0.70;;;19.50;99.90;19.50;96583.00;;;;5049084;28;20257;-70
2021/08/08 06:40:06;;;;;;;1.83;0.60;;;19.50;99.90;19.60;96587.00;;;;5050833;28;20250;-70
2021/08/08 06:42:55;;;;;;;0.97;0.97;;;19.50;99.90;19.50;96607.00;;;;5057180;28;20737;-69
2021/08/08 06:45:43;;;;;;;1.17;0.80;;;19.50;99.90;19.50;96606.00;;;;5063662;28;20624;-70
2021/08/08 06:48:34;;;;;;;0.87;0.70;;;19.50;99.90;19.50;96613.00;;;;5062353;28;20211;-71
2021/08/08 06:51:23;;;;;;;1.00;0.70;;;19.50;99.90;19.70;96610.00;;;;5074376;28;20227;-71
2021/08/08 06:54:13;;;;;;;1.00;0.90;;;19.50;99.90;19.80;96602.00;;;;5054275;28;20204;-71
2021/08/08 06:57:02;;;;;;;1.10;0.73;;;19.60;99.90;19.90;96612.00;;;;5065224;28;20234;-70
2021/08/08 06:59:51;;;;;;;0.60;0.60;;;19.70;99.90;20.00;96611.00;;;;5065089;28;20252;-72
2021/08/08 07:02:40;;;;;;;2.07;0.60;;;19.80;99.90;20.00;96616.00;;;;5065331;28;20246;-71
2021/08/08 07:05:32;;;;;;;0.43;0.43;;;19.90;99.90;20.20;96612.00;;;;5066548;28;20221;-72
2021/08/08 07:08:21;;;;;;;0.80;0.60;;;19.90;99.90;20.10;96612.00;;;;5066458;28;20228;-71
2021/08/08 07:11:10;;;;;;;1.10;1.00;;;20.00;99.90;20.40;96621.00;;;;5063945;28;20719;-72
2021/08/08 07:13:59;;;;;;;1.90;0.80;;;20.10;99.90;20.50;96629.00;;;;5065059;28;20206;-71
2021/08/08 07:16:48;;;;;;;2.60;1.13;;;20.30;99.90;20.30;96645.00;;;;5063606;28;20353;-71
2021/08/08 07:19:37;;;;;;;1.20;0.90;;;20.30;99.90;20.40;96646.00;;;;5065195;28;20204;-71
2021/08/08 07:22:28;;;;;;;2.63;0.80;;;20.30;99.90;20.40;96656.00;;;;5064636;28;20261;-71
2021/08/08 07:25:17;;;;;;;0.80;0.80;;;20.30;99.90;20.30;96645.00;;;;5059515;28;20216;-71
2021/08/08 07:28:06;;;;;;;0.80;0.80;;;20.40;99.90;20.30;96648.00;;;;5065484;28;20211;-72
2021/08/08 07:30:55;;;;;;;3.07;0.97;;;20.40;99.90;20.20;96634.00;;;;5069576;28;20246;-74
2021/08/08 07:33:44;;;;;;;2.43;1.07;;;20.30;99.90;20.40;96641.00;;;;5063444;28;20219;-71
2021/08/08 07:36:33;;;;;;;0.90;0.90;;;20.40;99.90;20.60;96631.00;;;;5065712;28;20199;-70
2021/08/08 07:39:23;;;;;;;1.97;1.20;;;20.50;99.90;20.30;96644.00;;;;5065134;28;20219;-70
2021/08/08 07:42:12;;;;;;;1.17;0.93;;;20.50;99.90;20.30;96640.00;;;;5068663;28;20238;-70
2021/08/08 07:45:01;;;;;;;0.73;0.53;;;20.40;99.90;20.30;96654.00;;;;5068925;28;20200;-70
2021/08/08 07:47:50;;;;;;;0.77;0.67;;;20.40;99.90;20.30;96646.00;;;;5069143;28;20227;-71
2021/08/08 07:50:39;;;;;;;1.37;0.70;;;20.40;99.90;20.20;96645.00;;;;5067890;28;20695;-73
2021/08/08 07:53:28;;;;;;;1.33;0.90;;;20.30;99.90;20.20;96651.00;;;;5068441;28;20208;-72
2021/08/08 07:56:18;;;;;;;1.30;0.80;;;20.30;99.90;20.20;96666.00;;;;5068839;28;20696;-72
2021/08/08 07:59:07;;;;;;;0.83;0.80;;;20.30;99.90;20.30;96667.00;;;;5068171;28;20210;-70
2021/08/08 08:01:56;;;;;;;0.83;0.83;;;20.30;99.90;20.20;96676.00;;;;5067477;28;20235;-71
2021/08/08 08:04:45;;;;;;;1.97;0.80;;;20.30;99.90;20.20;96672.00;;;;5068526;28;20204;-70
2021/08/08 08:07:34;;;;;;;0.73;0.70;;;20.20;99.90;20.20;96668.00;;;;5068465;28;20679;-70
2021/08/08 08:10:23;;;;;;;1.80;0.93;;;20.20;99.90;20.20;96670.00;;;;5054580;28;20266;-70
2021/08/08 08:13:13;;;;;;;0.90;0.70;;;20.20;99.90;20.30;96673.00;;;;5060621;28;20209;-71
2021/08/08 08:16:02;;;;;;;2.70;0.90;;;20.30;99.90;20.50;96672.00;;;;5053552;28;21222;-71
2021/08/08 08:18:51;;;;;;;2.43;0.73;;;20.30;99.90;20.40;96665.00;;;;5062458;28;20557;-71
2021/08/08 08:21:40;;;;;;;0.87;0.70;;;20.40;99.90;20.50;96677.00;;;;5057199;28;20679;-71
2021/08/08 08:24:29;;;;;;;0.73;0.60;;;20.40;99.90;20.50;96681.00;;;;5065999;28;20215;-70
2021/08/08 08:27:18;;;;;;;1.27;0.87;;;20.50;99.90;20.50;96683.00;;;;5057081;28;20568;-72
2021/08/08 08:30:10;;;;;;;0.97;0.70;;;20.50;99.90;20.70;96682.00;;;;5057384;28;20223;-71
2021/08/08 08:33:04;;;;;;;1.37;0.90;;;20.50;99.90;20.60;96681.00;;;;5051228;28;20212;-72
2021/08/08 08:36:01;;;;;;;1.07;0.50;;;20.50;99.90;20.50;96697.00;;;;5052017;28;20588;-71
2021/08/08 08:38:50;;;;;;;0.80;0.67;;;20.50;99.90;20.50;96694.00;;;;5055643;28;20208;-73
2021/08/08 08:41:39;;;;;;;0.43;0.43;;;20.50;99.90;20.50;96698.00;;;;5058028;28;20227;-72
2021/08/08 08:44:28;;;;;;;1.77;0.47;;;20.50;99.90;20.40;96701.00;;;;5056403;28;20205;-71
2021/08/08 08:47:21;;;;;;;1.10;1.00;;;20.50;99.90;20.50;96697.00;;;;5054265;28;20209;-72
2021/08/08 08:50:13;;;;;;;0.60;0.60;;;20.50;99.90;20.40;96693.00;;;;5050256;28;20203;-71
2021/08/08 08:53:05;;;;;;;2.40;0.87;;;20.50;99.90;20.50;96697.00;;;;5064929;28;20210;-71
2021/08/08 08:55:54;;;;;;;1.03;0.93;;;20.50;99.90;20.70;96703.00;;;;5056568;28;20201;-72
2021/08/08 08:58:43;;;;;;;0.80;0.80;;;20.50;99.90;20.70;96695.00;;;;5051420;28;20724;-71
2021/08/08 09:01:32;;;;;;;1.00;0.90;;;20.60;99.90;20.80;96699.00;;;;5057628;28;20224;-72
2021/08/08 09:04:23;;;;;;;0.80;0.60;;;20.60;99.90;20.80;96696.00;;;;5053061;28;20209;-71
2021/08/08 09:07:12;;;;;;;2.50;1.27;;;20.70;99.90;20.80;96699.00;;;;5054646;28;20204;-71
2021/08/08 09:10:01;;;;;;;0.70;0.70;;;20.70;99.90;20.80;96705.00;;;;5055123;28;20203;-70
2021/08/08 09:12:57;;;;;;;1.03;0.60;;;20.70;99.90;20.70;96705.00;;;;5058335;28;20196;-73
2021/08/08 09:15:48;;;;;;;0.90;0.77;;;20.80;99.90;20.90;96707.00;;;;5051716;28;20204;-70
2021/08/08 09:18:48;;;;;;;1.50;0.80;;;20.70;99.90;20.90;96716.00;;;;5059226;28;20213;-70
2021/08/08 09:21:45;;;;;;;1.03;0.70;;;20.80;99.90;21.00;96722.00;;;;5052947;28;20228;-73
2021/08/08 09:24:36;;;;;;;1.40;0.73;;;20.80;99.90;21.00;96725.00;;;;5058828;28;20234;-70
2021/08/08 09:27:35;;;;;;;1.40;0.90;;;20.90;99.90;21.00;96729.00;;;;5060119;28;20196;-70
2021/08/08 09:30:24;;;;;;;0.70;0.70;;;20.90;99.90;20.90;96725.00;;;;5064955;28;20265;-70
2021/08/08 09:33:14;;;;;;;1.73;1.40;;;20.90;99.90;21.10;96724.00;;;;5048324;28;20204;-71
2021/08/08 09:36:03;;;;;;;1.23;0.90;;;21.00;99.90;21.20;96724.00;;;;5046942;28;20249;-71
2021/08/08 09:38:53;;;;;;;0.80;0.80;;;21.00;99.90;21.30;96723.00;;;;5058726;28;20207;-70
2021/08/08 09:41:43;;;;;;;2.27;1.00;;;21.10;99.90;21.40;96725.00;;;;5050935;28;20296;-71
2021/08/08 09:44:35;;;;;;;0.83;0.73;;;21.20;99.90;21.30;96724.00;;;;5057948;28;20205;-70
2021/08/08 09:47:37;;;;;;;0.90;0.90;;;21.20;99.90;21.30;96728.00;;;;5065590;28;20210;-70
2021/08/08 09:50:28;;;;;;;0.97;0.90;;;21.20;99.90;21.20;96718.00;;;;5055370;28;20665;-71
2021/08/08 09:53:19;;;;;;;0.70;0.70;;;21.20;99.90;21.30;96723.00;;;;5045435;28;20439;-70
2021/08/08 09:56:19;;;;;;;1.03;0.70;;;21.30;99.90;21.50;96714.00;;;;5053296;28;20196;-70
2021/08/08 09:59:07;;;;;;;0.60;0.60;;;21.30;99.90;21.50;96713.00;;;;5058887;28;20272;-70
2021/08/08 10:01:57;;;;;;;2.80;0.90;;;21.40;99.90;21.60;96713.00;;;;5058776;28;20226;-71
2021/08/08 10:04:50;;;;;;;1.20;0.60;;;21.40;99.90;21.80;96725.00;;;;5052597;28;20214;-70
2021/08/08 10:07:42;;;;;;;3.40;0.70;;;21.50;99.90;21.80;96718.00;;;;5052887;28;20778;-70
2021/08/08 10:10:31;;;;;;;1.27;0.90;;;21.60;99.90;22.00;96720.00;;;;5054418;28;20204;-70
2021/08/08 10:13:38;;;;;;;1.07;0.60;;;21.70;99.90;22.40;96716.00;;;;5053501;28;20215;-71
2021/08/08 10:16:31;;;;;;;0.67;0.60;;;21.90;99.90;22.70;96705.00;;;;5058553;28;20196;-71
2021/08/08 10:19:21;;;;;;;0.70;0.70;;;22.10;99.90;22.50;96707.00;;;;5078081;28;20226;-72
2021/08/08 10:22:10;;;;;;;0.83;0.73;;;22.30;99.90;22.60;96708.00;;;;5069563;28;20867;-71
2021/08/08 10:25:01;;;;;;;1.07;0.70;;;22.40;99.90;22.70;96704.00;;;;5062715;28;20211;-76
2021/08/08 10:27:51;;;;;;;0.70;0.63;;;22.40;99.90;22.80;96716.00;;;;5064648;28;20208;-75
2021/08/08 10:30:43;;;;;;;1.10;0.70;;;22.50;99.90;22.60;96716.00;;;;5058825;28;20718;-70
2021/08/08 10:33:43;;;;;;;0.63;0.60;;;22.50;99.90;22.50;96723.00;;;;5063562;28;20204;-71
2021/08/08 10:36:34;;;;;;;2.20;0.80;;;22.50;99.90;22.50;96717.00;;;;5054316;28;20214;-71
2021/08/08 10:39:23;;;;;;;1.13;0.77;;;22.40;99.90;22.80;96717.00;;;;5061077;28;20212;-71
2021/08/08 10:42:12;;;;;;;1.67;1.03;;;22.50;99.90;22.90;96724.00;;;;5064164;28;20236;-71
2021/08/08 10:45:01;;;;;;;1.23;1.10;;;22.60;99.90;22.80;96731.00;;;;5045316;28;20191;-71
2021/08/08 10:48:02;;;;;;;0.97;0.97;;;22.70;99.90;22.70;96739.00;;;;5043731;28;20506;-69
2021/08/08 10:50:51;;;;;;;1.27;0.90;;;22.70;99.90;22.60;96743.00;;;;5047610;28;20231;-71
2021/08/08 10:53:40;;;;;;;3.80;0.90;;;22.60;99.90;22.50;96727.00;;;;5061665;28;20257;-71
2021/08/08 10:56:45;;;;;;;1.20;1.10;;;22.60;99.90;22.50;96712.00;;;;5063669;28;20207;-72
2021/08/08 10:59:44;;;;;;;0.93;0.80;;;22.50;99.90;22.40;96709.00;;;;5066042;28;20200;-71
2021/08/08 11:02:33;;;;;;;1.30;1.13;;;22.50;99.90;22.30;96715.00;;;;5055597;28;20222;-71
2021/08/08 11:05:23;;;;;;;0.77;0.77;;;22.40;99.90;22.20;96717.00;;;;5061266;28;20200;-71
2021/08/08 11:08:14;;;;;;;2.33;0.83;;;22.30;99.90;22.10;96708.00;;;;5057505;28;20188;-71
2021/08/08 11:11:07;;;;;;;1.13;0.60;;;22.30;99.90;22.10;96720.00;;;;5045059;28;20228;-72
2021/08/08 11:14:08;;;;;;;1.07;0.97;;;22.20;99.90;22.10;96715.00;;;;5046615;28;20688;-72
2021/08/08 11:17:02;;;;;;;1.10;1.00;;;22.20;99.90;22.00;96719.00;;;;5068665;28;20195;-72
2021/08/08 11:19:51;;;;;;;3.47;0.93;;;22.10;99.90;21.80;96724.00;;;;5068056;28;20198;-71
2021/08/08 11:22:42;;;;;;;1.53;1.20;;;22.00;99.90;21.80;96724.00;;;;5069649;28;20219;-71
2021/08/08 11:25:38;;;;;;;1.03;0.70;;;22.00;99.90;21.50;96719.00;;;;5068058;28;20206;-72
2021/08/08 11:28:27;;;;;;;0.90;0.87;;;21.80;99.90;21.40;96725.00;;;;5047277;28;20201;-71
2021/08/08 11:31:20;;;;;;;0.90;0.70;;;21.70;99.90;21.30;96736.00;;;;5063690;28;20234;-71
2021/08/08 11:34:10;;;;;;;1.43;0.80;;;21.60;99.90;21.30;96730.00;;;;5049684;28;20205;-71
2021/08/08 11:36:59;;;;;;;1.37;1.13;;;21.50;99.90;21.30;96730.00;;;;5067759;28;20207;-71
2021/08/08 11:39:50;;;;;;;0.77;0.70;;;21.40;99.90;21.20;96728.00;;;;5068238;28;20218;-72
2021/08/08 11:42:38;;;;;;;1.00;0.90;;;21.40;99.90;21.20;96733.00;;;;5067060;28;20743;-71
2021/08/08 11:45:34;;;;;;;1.03;0.90;;;21.30;99.90;21.10;96724.00;;;;5067291;28;20204;-71
2021/08/08 11:48:28;;;;;;;0.90;0.87;;;21.20;99.90;21.10;96729.00;;;;5068659;28;20184;-71
2021/08/08 11:51:20;;;;;;;0.87;0.80;;;21.20;99.90;20.90;96730.00;;;;5068194;28;20219;-72
2021/08/08 11:54:10;;;;;;;0.80;0.80;;;21.10;99.90;20.90;96717.00;;;;5067377;28;20195;-71
2021/08/08 11:57:01;;;;;;;1.40;1.30;;;21.00;99.90;20.90;96702.00;;;;5068755;28;20216;-71
2021/08/08 11:59:50;;;;;;;0.90;0.90;;;21.00;99.90;20.70;96702.00;;;;5067581;28;20249;-71
2021/08/08 12:02:39;;;;;;;1.13;1.03;;;20.90;99.90;20.70;96712.00;;;;5068193;28;20230;-71
2021/08/08 12:05:29;;;;;;;2.47;1.30;;;20.90;99.90;20.60;96717.00;;;;5047244;28;20548;-71
2021/08/08 12:08:18;;;;;;;0.70;0.70;;;20.80;99.90;20.60;96715.00;;;;5054321;28;20192;-72
2021/08/08 12:11:07;;;;;;;1.27;0.93;;;20.70;99.90;20.50;96713.00;;;;5067106;28;20293;-72
2021/08/08 12:14:06;;;;;;;1.23;0.90;;;20.70;99.90;20.40;96704.00;;;;5067041;28;20196;-71
2021/08/08 12:17:02;;;;;;;1.80;1.20;;;20.60;99.90;20.30;96726.00;;;;5067005;28;20278;-71
2021/08/08 12:19:54;;;;;;;0.90;0.70;;;20.60;99.90;20.10;96710.00;;;;5068007;28;20192;-71
2021/08/08 12:22:43;;;;;;;0.80;0.63;;;20.40;99.90;20.20;96702.00;;;;5066201;28;20594;-71
2021/08/08 12:25:32;;;;;;;0.80;0.80;;;20.40;99.90;20.30;96708.00;;;;5052867;28;20801;-71
2021/08/08 12:28:24;;;;;;;1.63;1.43;;;20.40;99.90;20.20;96714.00;;;;5060323;28;20196;-71
2021/08/08 12:31:14;;;;;;;1.67;1.30;;;20.40;99.90;19.80;96718.00;;;;5066543;28;20220;-72
2021/08/08 12:34:03;;;;;;;1.90;1.20;;;20.30;99.90;19.80;96719.00;;;;5065576;28;20216;-71
2021/08/08 12:37:03;;;;;;;1.17;1.03;;;20.20;99.90;19.80;96716.00;;;;5065724;28;20555;-71